Terminal Aerodrome Forecast
Issued by NWS Austin/San Antonio, TX

Home | Current Version | Previous Version | Text Only | Print | Product List | Glossary On
Versions: 1 2 3 4 5 6 7 8 9 10 11 12 13 14 15
000
FTUS44 KEWX 281300 AAA
TAFDRT
TAF AMD
KDRT 281304Z 2813/2912 11008KT P6SM OVC006
      TEMPO 2813/2815 3SM BR OVC004
     FM281600 14011G21KT P6SM FEW050
     FM290000 12006KT P6SM SKC
     FM291000 11006KT P6SM SCT010=

USA.gov is the U.S. government's official web portal to all federal, state and local government web resources and services.